Time;durP1;ratioP1;P1;durP2;ratioP2;P2;SDS_P1;SDS_P2;PMS_P1;PMS_P2;Temp;Humidity;BMP_temperature;BMP_pressure;BME280_temperature;BME280_humidity;BME280_pressure;Samples;Min_cycle;Max_cycle;Signal;HPM_P1;HPM_P2
2022/04/06 16:24:47;;;;;;;4.22;1.38;;;20.80;29.30;;;;;;6327171;27;20709;-80
2022/04/06 16:27:53;;;;;;;4.93;1.70;;;14.20;35.30;;;;;;6303863;28;20290;-79
2022/04/06 16:30:59;;;;;;;4.68;1.98;;;11.00;44.50;;;;;;6305095;28;20445;-79
2022/04/06 16:34:05;;;;;;;4.65;1.63;;;8.50;46.10;;;;;;6306954;28;20306;-80
2022/04/06 16:37:10;;;;;;;11.27;1.30;;;7.40;50.90;;;;;;6306486;28;20472;-80
2022/04/06 16:40:18;;;;;;;2.20;1.52;;;6.90;55.80;;;;;;6306800;28;20270;-80
2022/04/06 16:43:24;;;;;;;6.22;1.30;;;6.50;58.70;;;;;;6306881;28;20298;-80
2022/04/06 16:46:30;;;;;;;3.83;1.20;;;6.20;62.20;;;;;;6306714;28;20271;-79
2022/04/06 16:52:59;;;;;;;1.10;1.10;;;5.80;75.20;;;;;;6304351;28;20294;-80
2022/04/06 16:56:06;;;;;;;2.78;1.30;;;5.80;79.80;;;;;;6305110;28;20275;-86
2022/04/06 16:59:13;;;;;;;3.87;1.80;;;5.60;81.80;;;;;;6306357;28;20426;-79
2022/04/06 17:02:24;;;;;;;6.50;1.50;;;5.50;84.90;;;;;;6305808;28;20271;-78
2022/04/06 17:05:30;;;;;;;4.27;1.57;;;5.40;89.80;;;;;;6305203;28;20438;-79
2022/04/06 17:08:35;;;;;;;4.97;1.57;;;5.30;91.10;;;;;;6306175;28;20584;-80
2022/04/06 17:11:42;;;;;;;3.60;1.60;;;5.20;94.00;;;;;;6296495;28;20554;-81
2022/04/06 17:14:50;;;;;;;4.63;1.40;;;5.10;95.10;;;;;;6280270;28;20302;-80
2022/04/06 17:17:56;;;;;;;1.40;1.30;;;5.00;95.90;;;;;;6281351;28;20294;-82
2022/04/06 17:21:01;;;;;;;7.40;1.80;;;4.90;96.70;;;;;;6281246;28;20274;-82
2022/04/06 17:24:11;;;;;;;6.53;2.03;;;4.90;98.00;;;;;;6281139;28;20302;-82
2022/04/06 17:27:18;;;;;;;2.40;1.60;;;4.80;98.30;;;;;;6281301;28;20274;-80
2022/04/06 17:30:24;;;;;;;3.23;1.90;;;4.80;99.20;;;;;;6279979;28;20270;-79
2022/04/06 17:33:29;;;;;;;2.47;2.00;;;4.70;99.90;;;;;;6277397;28;20291;-79
2022/04/06 17:36:35;;;;;;;9.80;1.83;;;4.70;99.90;;;;;;6264561;28;20274;-79
2022/04/06 17:39:40;;;;;;;1.97;1.50;;;4.50;99.90;;;;;;6264286;28;20298;-79
2022/04/06 17:42:47;;;;;;;2.10;1.43;;;4.50;99.90;;;;;;6264073;28;20299;-79
2022/04/06 17:45:59;;;;;;;2.93;1.73;;;4.40;99.90;;;;;;6264755;28;20274;-81
2022/04/06 17:49:08;;;;;;;4.50;1.80;;;4.30;99.90;;;;;;6263837;28;20299;-79
2022/04/06 17:52:13;;;;;;;6.00;1.83;;;4.30;99.90;;;;;;6263800;28;20270;-79
2022/04/06 17:55:19;;;;;;;5.80;2.03;;;4.30;99.90;;;;;;6264459;28;20277;-82
2022/04/06 17:58:27;;;;;;;3.20;1.63;;;4.20;99.90;;;;;;6262631;28;20462;-80
2022/04/06 18:01:32;;;;;;;5.60;1.70;;;4.20;99.90;;;;;;6264309;28;20274;-81
2022/04/06 18:04:38;;;;;;;3.77;1.40;;;4.10;99.90;;;;;;6263725;28;20301;-80
2022/04/06 18:07:43;;;;;;;1.40;1.40;;;4.00;99.90;;;;;;6263879;28;20301;-80
2022/04/06 18:14:13;;;;;;;1.30;1.30;;;4.00;99.90;;;;;;6263650;28;20302;-81
2022/04/06 18:17:19;;;;;;;3.07;1.60;;;3.90;99.90;;;;;;6263276;28;20273;-80
2022/04/06 18:20:25;;;;;;;1.60;1.10;;;3.80;99.90;;;;;;6263736;28;20277;-81
2022/04/06 18:23:30;;;;;;;1.83;1.30;;;3.80;99.90;;;;;;6263168;28;20302;-82
2022/04/06 18:26:36;;;;;;;3.17;1.50;;;3.80;99.90;;;;;;6263589;28;20319;-82
2022/04/06 18:29:42;;;;;;;1.33;1.30;;;3.80;99.90;;;;;;6263172;28;20296;-82
2022/04/06 18:32:48;;;;;;;2.40;1.30;;;3.70;99.90;;;;;;6262795;28;20675;-81
2022/04/06 18:35:55;;;;;;;1.70;1.60;;;3.60;99.90;;;;;;6263504;28;20280;-81
2022/04/06 18:39:01;;;;;;;2.10;1.20;;;3.60;99.90;;;;;;6262932;28;20300;-82
2022/04/06 18:42:07;;;;;;;1.97;1.20;;;3.50;99.90;;;;;;6262515;28;20273;-82
2022/04/06 18:45:14;;;;;;;1.63;1.53;;;3.50;99.90;;;;;;6262242;28;20492;-82
2022/04/06 18:48:20;;;;;;;3.60;1.40;;;3.40;99.90;;;;;;6262253;28;20297;-82
2022/04/06 18:51:26;;;;;;;4.33;1.73;;;3.40;99.90;;;;;;6262495;28;20273;-81
2022/04/06 18:54:31;;;;;;;3.30;1.30;;;3.40;99.90;;;;;;6262243;28;20614;-81
2022/04/06 18:57:38;;;;;;;4.53;1.57;;;3.40;99.90;;;;;;6262288;28;20297;-81
2022/04/06 19:00:45;;;;;;;2.60;1.30;;;3.40;99.90;;;;;;6245036;28;20289;-80
2022/04/06 19:03:51;;;;;;;1.83;1.30;;;3.30;99.90;;;;;;6262206;28;20322;-81
2022/04/06 19:06:57;;;;;;;2.13;1.60;;;3.30;99.90;;;;;;6244742;28;20274;-81
2022/04/06 19:10:02;;;;;;;2.00;1.90;;;3.30;99.90;;;;;;6266571;28;20286;-81
2022/04/06 19:13:08;;;;;;;4.83;1.40;;;3.30;99.90;;;;;;6277709;28;20303;-80
2022/04/06 19:16:15;;;;;;;3.73;1.63;;;3.20;99.90;;;;;;6261134;28;20571;-81
2022/04/06 19:19:21;;;;;;;2.10;1.30;;;3.20;99.90;;;;;;6261827;28;20306;-80
2022/04/06 19:22:26;;;;;;;3.87;1.67;;;3.10;99.90;;;;;;6265940;28;20298;-80
2022/04/06 19:25:33;;;;;;;1.93;1.47;;;3.00;99.90;;;;;;6286844;28;20299;-81
2022/04/06 19:28:38;;;;;;;1.33;1.30;;;2.90;99.90;;;;;;6284629;28;20303;-81
2022/04/06 19:31:45;;;;;;;2.73;1.37;;;2.80;99.90;;;;;;6286449;28;20561;-81
2022/04/06 19:34:51;;;;;;;3.90;1.43;;;2.80;99.90;;;;;;6284442;28;20299;-81
2022/04/06 19:37:57;;;;;;;1.60;1.50;;;2.80;99.90;;;;;;6282827;28;20300;-81
2022/04/06 19:41:02;;;;;;;4.70;1.73;;;2.70;99.90;;;;;;6262299;28;20274;-81
2022/04/06 19:44:08;;;;;;;2.17;1.60;;;2.80;99.90;;;;;;6261862;28;20425;-80
2022/04/06 19:47:14;;;;;;;7.93;1.70;;;2.70;99.90;;;;;;6261396;28;20328;-81
2022/04/06 19:50:20;;;;;;;5.47;1.47;;;2.60;99.90;;;;;;6261563;28;20280;-81
2022/04/06 19:53:25;;;;;;;2.10;1.50;;;2.60;99.90;;;;;;6259782;28;20303;-81
2022/04/06 19:56:32;;;;;;;2.63;1.40;;;2.60;99.90;;;;;;6260245;28;20278;-81
2022/04/06 19:59:37;;;;;;;8.30;2.00;;;2.50;99.90;;;;;;6258756;28;20303;-81
2022/04/06 20:02:44;;;;;;;1.50;1.40;;;2.50;99.90;;;;;;6261212;28;20292;-81
2022/04/06 20:05:50;;;;;;;2.33;1.63;;;2.50;99.90;;;;;;6261104;28;20429;-81
2022/04/06 20:08:55;;;;;;;3.63;1.57;;;2.50;99.90;;;;;;6260951;28;20316;-80
2022/04/06 20:12:01;;;;;;;2.20;1.40;;;2.50;99.90;;;;;;6283107;28;20266;-80
2022/04/06 20:15:07;;;;;;;3.60;1.60;;;2.40;99.90;;;;;;6286204;28;20302;-80
2022/04/06 20:18:18;;;;;;;1.87;1.50;;;2.40;99.90;;;;;;6285535;28;20298;-80
2022/04/06 20:21:24;;;;;;;2.67;1.50;;;2.40;99.90;;;;;;6286074;28;20438;-80
2022/04/06 20:24:29;;;;;;;1.90;1.50;;;2.30;99.90;;;;;;6284598;28;20611;-80
2022/04/06 20:27:34;;;;;;;1.40;1.30;;;2.30;99.90;;;;;;6285479;28;20496;-81
2022/04/06 20:30:40;;;;;;;1.37;1.27;;;2.30;99.90;;;;;;6284309;28;20278;-81
2022/04/06 20:33:47;;;;;;;3.33;1.40;;;2.20;99.90;;;;;;6285358;28;20305;-80
2022/04/06 20:36:53;;;;;;;3.27;1.50;;;2.20;99.90;;;;;;6285895;28;20275;-80
2022/04/06 20:39:59;;;;;;;1.50;1.50;;;2.20;99.90;;;;;;6284996;28;20417;-81
2022/04/06 20:43:05;;;;;;;4.67;1.30;;;2.10;99.90;;;;;;6283535;28;20295;-81
2022/04/06 20:46:15;;;;;;;6.73;1.40;;;2.10;99.90;;;;;;6285757;28;20286;-81
2022/04/06 20:49:21;;;;;;;3.83;1.40;;;2.00;99.90;;;;;;6285313;28;20302;-81
2022/04/06 20:52:27;;;;;;;1.30;1.30;;;2.10;99.90;;;;;;6284828;28;20324;-80
2022/04/06 20:55:32;;;;;;;1.70;1.60;;;2.00;99.90;;;;;;6285598;28;20291;-80
2022/04/06 20:58:39;;;;;;;4.77;1.37;;;2.00;99.90;;;;;;6285056;28;20429;-80
2022/04/06 21:01:44;;;;;;;2.83;1.50;;;2.00;99.90;;;;;;6284940;28;20273;-80
2022/04/06 21:04:51;;;;;;;3.63;1.57;;;2.00;99.90;;;;;;6285060;28;20291;-80
2022/04/06 21:07:57;;;;;;;1.40;1.40;;;2.00;99.90;;;;;;6284551;28;20303;-80
2022/04/06 21:11:02;;;;;;;2.07;1.27;;;1.90;99.90;;;;;;6274865;28;20457;-80
2022/04/06 21:14:07;;;;;;;1.53;1.43;;;1.90;99.90;;;;;;6263768;28;20297;-80
2022/04/06 21:17:14;;;;;;;1.67;1.30;;;1.90;99.90;;;;;;6264651;28;20613;-80
2022/04/06 21:20:24;;;;;;;1.43;1.43;;;1.90;99.90;;;;;;6263572;28;20273;-80
2022/04/06 21:23:30;;;;;;;2.13;1.73;;;1.90;99.90;;;;;;6264149;28;20310;-80
2022/04/06 21:26:35;;;;;;;3.13;1.50;;;1.90;99.90;;;;;;6264801;28;20291;-80
2022/04/06 21:29:43;;;;;;;1.63;1.57;;;1.80;99.90;;;;;;6264368;28;20316;-80
2022/04/06 21:32:49;;;;;;;2.23;1.50;;;1.80;99.90;;;;;;6264030;28;20289;-80
2022/04/06 21:35:56;;;;;;;3.77;1.70;;;1.70;99.90;;;;;;6264760;28;20272;-80
2022/04/06 21:39:01;;;;;;;2.60;1.53;;;1.70;99.90;;;;;;6262781;28;20489;-81
2022/04/06 21:42:08;;;;;;;4.40;1.63;;;1.70;99.90;;;;;;6263012;28;20276;-80
2022/04/06 21:45:13;;;;;;;2.67;1.43;;;1.70;99.90;;;;;;6264621;28;20267;-81
2022/04/06 21:48:23;;;;;;;1.70;1.60;;;1.70;99.90;;;;;;6263975;28;20337;-81
2022/04/06 21:51:30;;;;;;;3.20;1.63;;;1.70;99.90;;;;;;6264848;28;20272;-80
2022/04/06 21:54:35;;;;;;;3.17;1.60;;;1.80;99.90;;;;;;6264117;28;20302;-80
2022/04/06 21:57:40;;;;;;;1.83;1.70;;;1.80;99.90;;;;;;6262863;28;20298;-81
2022/04/06 22:00:46;;;;;;;5.13;1.70;;;1.90;99.90;;;;;;6263017;28;20469;-80
2022/04/06 22:03:51;;;;;;;1.67;1.50;;;1.90;99.90;;;;;;6263345;28;20299;-81
2022/04/06 22:06:58;;;;;;;1.77;1.77;;;1.90;99.90;;;;;;6262407;28;20298;-81
2022/04/06 22:10:04;;;;;;;5.33;1.90;;;1.90;99.90;;;;;;6268918;28;20283;-80
2022/04/06 22:13:10;;;;;;;4.50;1.60;;;1.90;99.90;;;;;;6288134;28;20619;-80
2022/04/06 22:16:17;;;;;;;1.83;1.47;;;1.90;99.90;;;;;;6288684;28;20276;-80
2022/04/06 22:19:22;;;;;;;2.83;1.70;;;2.00;99.90;;;;;;6286553;28;20300;-80
2022/04/06 22:22:30;;;;;;;2.00;1.90;;;1.90;99.90;;;;;;6287434;28;20291;-81
2022/04/06 22:25:36;;;;;;;4.90;1.90;;;1.90;99.90;;;;;;6288531;28;20270;-80
2022/04/06 22:28:43;;;;;;;1.90;1.80;;;1.90;99.90;;;;;;6287752;28;20303;-81
2022/04/06 22:31:49;;;;;;;1.80;1.70;;;1.90;99.90;;;;;;6288212;28;20272;-80
2022/04/06 22:34:56;;;;;;;7.47;1.73;;;1.80;99.90;;;;;;6287392;28;20300;-80
2022/04/06 22:38:03;;;;;;;1.80;1.30;;;1.80;99.90;;;;;;6287458;28;20478;-80
2022/04/06 22:41:08;;;;;;;3.20;1.43;;;1.80;99.90;;;;;;6287683;28;20271;-81
2022/04/06 22:44:14;;;;;;;1.50;1.40;;;1.80;99.90;;;;;;6287091;28;20299;-80
2022/04/06 22:47:19;;;;;;;1.40;1.40;;;1.80;99.90;;;;;;6286987;28;20306;-80
2022/04/06 22:50:25;;;;;;;1.33;1.20;;;1.80;99.90;;;;;;6287847;28;20546;-81
2022/04/06 22:53:33;;;;;;;1.73;1.63;;;1.70;99.90;;;;;;6287359;28;20295;-80
2022/04/06 22:56:39;;;;;;;2.50;1.70;;;1.70;99.90;;;;;;6287696;28;20270;-80
2022/04/06 22:59:46;;;;;;;1.40;1.40;;;1.70;99.90;;;;;;6286594;28;20306;-80
2022/04/06 23:02:52;;;;;;;1.23;1.23;;;1.70;99.90;;;;;;6286606;28;20294;-80
2022/04/06 23:05:58;;;;;;;3.03;1.40;;;1.80;99.90;;;;;;6285834;28;20302;-80
2022/04/06 23:09:05;;;;;;;1.53;1.43;;;1.80;99.90;;;;;;6286424;28;20303;-80
2022/04/06 23:12:12;;;;;;;1.70;1.70;;;1.70;99.90;;;;;;6262991;28;20264;-80
2022/04/06 23:15:17;;;;;;;2.17;1.60;;;1.80;99.90;;;;;;6262668;28;20275;-80
2022/04/06 23:18:23;;;;;;;1.17;1.17;;;1.80;99.90;;;;;;6261636;28;20291;-80
2022/04/06 23:21:27;;;;;;;1.67;1.57;;;1.80;99.90;;;;;;6262135;28;20277;-80
2022/04/06 23:24:34;;;;;;;1.60;1.50;;;1.80;99.90;;;;;;6261575;28;20300;-80
2022/04/06 23:27:40;;;;;;;1.70;1.60;;;1.80;99.90;;;;;;6261703;28;20299;-81
2022/04/06 23:30:45;;;;;;;1.40;1.30;;;1.80;99.90;;;;;;6262100;28;20273;-81
2022/04/06 23:33:51;;;;;;;1.83;1.43;;;1.80;99.90;;;;;;6260883;28;20291;-79
2022/04/06 23:36:56;;;;;;;1.30;1.30;;;1.80;99.90;;;;;;6261622;28;20272;-79
2022/04/06 23:40:03;;;;;;;1.80;1.70;;;1.80;99.90;;;;;;6260983;28;20279;-79
2022/04/06 23:43:09;;;;;;;5.00;1.40;;;1.90;99.90;;;;;;6261315;28;20313;-79
2022/04/06 23:46:15;;;;;;;1.40;1.40;;;1.90;99.90;;;;;;6262030;28;20279;-79
2022/04/06 23:49:20;;;;;;;3.47;1.80;;;1.90;99.90;;;;;;6261187;28;20301;-79
2022/04/06 23:52:26;;;;;;;1.77;1.77;;;1.90;99.90;;;;;;6261302;28;20298;-80
2022/04/06 23:55:32;;;;;;;1.40;1.40;;;2.00;99.90;;;;;;6261708;28;20273;-80
2022/04/06 23:58:38;;;;;;;1.53;1.53;;;2.00;99.90;;;;;;6260896;28;20594;-80
